Time;durP1;ratioP1;P1;durP2;ratioP2;P2;SDS_P1;SDS_P2;PMS_P1;PMS_P2;Temp;Humidity;BMP_temperature;BMP_pressure;BME280_temperature;BME280_humidity;BME280_pressure;Samples;Min_cycle;Max_cycle;Signal;HPM_P1;HPM_P2
2022/07/05 00:02:19;;;;;;;1.93;1.60;;;;;;;15.43;100.00;101024.78;5024613;28;20254;-72
2022/07/05 00:04:47;;;;;;;2.10;1.73;;;;;;;15.42;100.00;101030.97;5020187;28;20215;-73
2022/07/05 00:07:19;;;;;;;1.63;1.50;;;;;;;15.26;100.00;101035.97;5037430;28;20215;-72
2022/07/05 00:09:46;;;;;;;6.27;1.80;;;;;;;15.19;100.00;101034.50;5023507;28;20208;-73
2022/07/05 00:12:13;;;;;;;2.10;1.90;;;;;;;15.05;100.00;101042.91;5028870;28;20200;-73
2022/07/05 00:14:40;;;;;;;1.83;1.73;;;;;;;15.10;100.00;101036.53;5025141;28;20279;-72
2022/07/05 00:17:07;;;;;;;2.23;1.90;;;;;;;15.14;100.00;101034.66;5027941;28;20227;-72
2022/07/05 00:19:34;;;;;;;3.53;1.77;;;;;;;15.09;100.00;101034.84;5035018;28;20207;-73
2022/07/05 00:22:02;;;;;;;1.77;1.67;;;;;;;15.20;100.00;101031.81;5029255;28;20198;-72
2022/07/05 00:24:29;;;;;;;1.60;1.50;;;;;;;15.12;100.00;101037.34;5031169;28;20543;-72
2022/07/05 00:26:55;;;;;;;1.83;1.67;;;;;;;15.06;100.00;101034.97;5024857;28;20228;-72
2022/07/05 00:29:22;;;;;;;2.00;1.80;;;;;;;15.11;100.00;101038.28;5018994;28;20211;-73
2022/07/05 00:31:48;;;;;;;1.87;1.77;;;;;;;15.01;100.00;101036.91;5009063;28;20196;-73
2022/07/05 00:34:16;;;;;;;4.03;1.70;;;;;;;14.98;100.00;101033.53;5011405;28;20299;-72
2022/07/05 00:36:43;;;;;;;2.20;1.70;;;;;;;14.82;100.00;101034.13;5023451;28;20223;-72
2022/07/05 00:39:11;;;;;;;2.83;1.83;;;;;;;14.80;100.00;101035.09;5010466;28;20223;-72
2022/07/05 00:41:38;;;;;;;1.80;1.60;;;;;;;14.89;100.00;101032.13;5004074;28;20215;-72
2022/07/05 00:44:07;;;;;;;2.00;1.90;;;;;;;14.84;100.00;101034.06;5012101;28;20195;-72
2022/07/05 00:46:34;;;;;;;2.20;1.80;;;;;;;14.78;100.00;101043.03;5011044;28;20722;-72
2022/07/05 00:49:01;;;;;;;1.73;1.63;;;;;;;14.67;100.00;101043.44;5013372;28;20219;-73
2022/07/05 00:51:31;;;;;;;1.90;1.77;;;;;;;14.57;100.00;101034.97;5026776;28;20199;-73
2022/07/05 00:53:57;;;;;;;2.10;1.90;;;;;;;14.60;100.00;101048.94;5023996;28;20251;-72
2022/07/05 00:56:25;;;;;;;2.00;1.77;;;;;;;14.61;100.00;101037.53;5012489;28;20238;-72
2022/07/05 00:58:53;;;;;;;1.83;1.73;;;;;;;14.62;100.00;101036.63;5013612;28;20230;-72
2022/07/05 01:01:19;;;;;;;2.73;1.93;;;;;;;14.71;100.00;101037.13;5008262;28;20214;-72
2022/07/05 01:03:47;;;;;;;3.43;1.90;;;;;;;14.60;100.00;101036.69;5003141;28;20208;-73
2022/07/05 01:06:15;;;;;;;3.63;1.80;;;;;;;14.63;100.00;101030.47;5007993;28;20767;-72
2022/07/05 01:08:43;;;;;;;2.23;1.90;;;;;;;14.70;100.00;101032.78;5004919;28;20261;-72
2022/07/05 01:11:10;;;;;;;3.17;2.20;;;;;;;14.71;100.00;101028.41;5000397;28;20525;-72
2022/07/05 01:13:39;;;;;;;1.70;1.60;;;;;;;14.81;100.00;101027.16;5029334;28;20204;-72
2022/07/05 01:16:06;;;;;;;1.70;1.60;;;;;;;14.80;100.00;101024.59;5030621;28;20353;-72
2022/07/05 01:18:33;;;;;;;2.20;1.90;;;;;;;14.76;100.00;101023.84;5010014;28;20203;-72
2022/07/05 01:21:00;;;;;;;1.70;1.60;;;;;;;14.72;100.00;101019.63;5008448;28;20587;-72
2022/07/05 01:23:29;;;;;;;1.87;1.77;;;;;;;14.74;100.00;101020.44;5006725;28;20564;-72
2022/07/05 01:25:57;;;;;;;3.10;1.70;;;;;;;14.54;100.00;101021.13;5021050;28;20425;-72
2022/07/05 01:28:24;;;;;;;3.87;1.60;;;;;;;14.50;100.00;101015.13;5011380;28;20186;-73
2022/07/05 01:30:51;;;;;;;3.00;1.80;;;;;;;14.65;100.00;101016.38;5008354;28;20671;-72
2022/07/05 01:33:18;;;;;;;1.70;1.60;;;;;;;14.50;100.00;101019.53;5025152;28;20208;-72
2022/07/05 01:35:45;;;;;;;1.47;1.37;;;;;;;14.43;100.00;101013.66;4999225;28;20334;-73
2022/07/05 01:38:13;;;;;;;2.27;1.87;;;;;;;14.64;100.00;101008.56;5016277;28;20192;-73
2022/07/05 01:40:40;;;;;;;2.27;2.00;;;;;;;14.63;100.00;101018.19;5009197;28;20220;-72
2022/07/05 01:43:07;;;;;;;2.93;1.97;;;;;;;14.50;100.00;101015.13;5020266;28;20208;-72
2022/07/05 01:45:42;;;;;;;3.23;2.00;;;;;;;14.54;100.00;101016.72;5021464;28;20276;-73
2022/07/05 01:48:10;;;;;;;2.40;1.80;;;;;;;14.37;100.00;101011.22;5022707;28;20195;-72
2022/07/05 01:50:40;;;;;;;2.20;1.83;;;;;;;14.30;100.00;101018.47;5023196;28;20200;-72
2022/07/05 01:53:11;;;;;;;2.00;1.80;;;;;;;14.29;100.00;101016.75;5029077;28;20571;-72
2022/07/05 01:55:38;;;;;;;2.00;1.80;;;;;;;14.27;100.00;101017.72;5011215;28;20209;-72
2022/07/05 01:58:06;;;;;;;1.77;1.67;;;;;;;14.41;100.00;101015.47;5003505;28;20229;-72
2022/07/05 02:00:42;;;;;;;2.33;1.83;;;;;;;14.30;100.00;101012.34;5024862;28;20219;-72
2022/07/05 02:03:10;;;;;;;3.03;1.90;;;;;;;14.12;100.00;101014.72;5025548;28;20704;-72
2022/07/05 02:05:36;;;;;;;1.90;1.77;;;;;;;14.27;100.00;101018.56;5026587;28;20200;-72
2022/07/05 02:08:04;;;;;;;3.73;1.83;;;;;;;14.28;100.00;101019.44;5017839;28;20200;-72
2022/07/05 02:10:30;;;;;;;3.53;1.97;;;;;;;14.45;100.00;101014.44;5033035;28;20204;-72
2022/07/05 02:12:57;;;;;;;3.43;1.90;;;;;;;14.40;100.00;101011.13;5006562;28;20728;-72
2022/07/05 02:15:25;;;;;;;4.50;1.57;;;;;;;14.43;100.00;101020.66;5014679;28;20203;-72
2022/07/05 02:17:51;;;;;;;1.97;1.77;;;;;;;14.38;100.00;101021.66;5014085;28;20675;-72
2022/07/05 02:20:18;;;;;;;2.37;1.90;;;;;;;14.38;100.00;101016.41;5039537;28;20219;-72
2022/07/05 02:22:45;;;;;;;3.80;2.00;;;;;;;14.14;100.00;101027.78;5008932;28;20362;-72
2022/07/05 02:25:12;;;;;;;3.83;2.27;;;;;;;14.08;100.00;101025.38;5026672;28;20211;-72
2022/07/05 02:27:40;;;;;;;1.80;1.70;;;;;;;14.14;100.00;101030.41;5013797;28;20222;-72
2022/07/05 02:30:07;;;;;;;2.07;1.97;;;;;;;14.06;100.00;101028.06;5029856;28;20203;-72
2022/07/05 02:32:40;;;;;;;2.67;1.80;;;;;;;13.94;100.00;101026.69;5027903;28;20201;-72
2022/07/05 02:35:08;;;;;;;2.30;2.00;;;;;;;14.01;100.00;101040.44;5015563;28;20619;-72
2022/07/05 02:37:36;;;;;;;2.57;1.97;;;;;;;13.95;100.00;101043.28;5014913;28;20757;-72
2022/07/05 02:40:06;;;;;;;1.93;1.83;;;;;;;14.01;100.00;101036.06;5019438;28;20218;-73
2022/07/05 02:42:37;;;;;;;1.93;1.83;;;;;;;13.93;100.00;101037.22;5007751;28;20628;-72
2022/07/05 02:45:04;;;;;;;2.07;1.87;;;;;;;13.95;100.00;101038.06;5024922;28;20210;-72
2022/07/05 02:47:31;;;;;;;2.27;2.03;;;;;;;13.81;100.00;101034.13;5001177;28;20218;-72
2022/07/05 02:50:03;;;;;;;2.20;1.77;;;;;;;13.75;100.00;101036.91;5003726;28;20683;-72
2022/07/05 02:52:29;;;;;;;2.37;2.00;;;;;;;13.78;100.00;101036.81;5014166;28;20207;-72
2022/07/05 02:54:56;;;;;;;2.43;1.70;;;;;;;13.88;100.00;101026.91;5035884;28;20203;-72
2022/07/05 02:57:23;;;;;;;2.03;1.83;;;;;;;13.86;100.00;101028.72;5012179;28;20228;-72
2022/07/05 02:59:49;;;;;;;1.80;1.70;;;;;;;13.85;100.00;101039.25;5035113;28;20310;-72
2022/07/05 03:02:16;;;;;;;2.10;1.90;;;;;;;13.80;100.00;101032.38;5003019;28;20204;-72
2022/07/05 03:04:42;;;;;;;2.07;1.97;;;;;;;13.74;100.00;101045.72;5031174;28;20197;-72
2022/07/05 03:07:10;;;;;;;3.90;2.17;;;;;;;13.82;100.00;101041.09;5014405;28;20232;-72
2022/07/05 03:09:37;;;;;;;2.17;2.00;;;;;;;13.63;100.00;101045.19;5011445;28;20465;-72
2022/07/05 03:12:05;;;;;;;1.60;1.50;;;;;;;13.73;100.00;101040.50;5006851;28;20203;-72
2022/07/05 03:14:34;;;;;;;3.90;2.00;;;;;;;13.66;100.00;101044.25;5006214;28;20200;-72
2022/07/05 03:17:01;;;;;;;3.60;2.00;;;;;;;13.61;100.00;101040.03;5012665;28;20235;-72
2022/07/05 03:19:27;;;;;;;2.30;1.93;;;;;;;13.59;100.00;101036.56;5009959;28;20216;-72
2022/07/05 03:21:53;;;;;;;2.63;2.03;;;;;;;13.61;100.00;101036.53;5033187;28;20444;-72
2022/07/05 03:24:21;;;;;;;2.10;1.90;;;;;;;13.77;100.00;101032.50;5004592;28;20592;-72
2022/07/05 03:26:48;;;;;;;2.10;1.87;;;;;;;13.76;100.00;101035.19;5031465;28;20698;-72
2022/07/05 03:29:14;;;;;;;2.10;1.83;;;;;;;13.65;100.00;101043.41;5009752;28;20205;-72
2022/07/05 03:31:42;;;;;;;2.37;2.17;;;;;;;13.76;100.00;101051.75;5008677;28;20209;-72
2022/07/05 03:34:09;;;;;;;2.73;2.17;;;;;;;13.59;100.00;101054.06;5008975;28;20208;-72
2022/07/05 03:36:36;;;;;;;2.47;1.93;;;;;;;13.81;100.00;101054.22;5007215;28;20233;-72
2022/07/05 03:39:06;;;;;;;2.60;2.10;;;;;;;13.81;100.00;101056.84;5010540;28;20206;-72
2022/07/05 03:41:36;;;;;;;2.23;2.03;;;;;;;13.82;100.00;101058.56;5042314;28;20606;-72
2022/07/05 03:44:04;;;;;;;2.20;2.00;;;;;;;13.85;100.00;101063.69;5012146;28;20293;-72
2022/07/05 03:46:31;;;;;;;2.50;2.23;;;;;;;13.82;100.00;101063.78;5009831;28;20234;-73
2022/07/05 03:48:58;;;;;;;2.33;2.13;;;;;;;13.96;100.00;101064.19;5022365;28;20202;-72
2022/07/05 03:51:24;;;;;;;3.77;2.27;;;;;;;13.98;100.00;101067.66;5010446;28;20206;-72
2022/07/05 03:53:53;;;;;;;2.53;2.33;;;;;;;13.87;100.00;101072.38;5006971;28;20236;-72
2022/07/05 03:56:23;;;;;;;1.93;1.77;;;;;;;13.86;100.00;101085.50;5008001;28;20348;-72
2022/07/05 03:58:53;;;;;;;2.33;2.13;;;;;;;13.93;100.00;101076.53;5004656;28;20205;-73
2022/07/05 04:01:19;;;;;;;2.43;2.23;;;;;;;13.92;100.00;101086.19;5007188;28;20303;-72
2022/07/05 04:03:46;;;;;;;2.33;2.13;;;;;;;13.93;100.00;101079.16;5010514;28;20327;-72
2022/07/05 04:06:15;;;;;;;2.50;1.87;;;;;;;13.88;100.00;101083.69;5027346;28;20280;-72
2022/07/05 04:08:42;;;;;;;2.53;2.33;;;;;;;13.79;100.00;101084.84;5012885;28;20276;-72
2022/07/05 04:11:09;;;;;;;2.60;2.40;;;;;;;13.71;100.00;101082.50;5011392;28;20258;-72
2022/07/05 04:13:38;;;;;;;5.50;2.40;;;;;;;13.86;100.00;101078.53;5010057;28;20616;-72
2022/07/05 04:16:08;;;;;;;2.50;2.30;;;;;;;13.70;100.00;101085.16;5007378;28;20748;-72
2022/07/05 04:18:34;;;;;;;2.73;2.43;;;;;;;13.89;100.00;101082.81;5007066;28;20201;-72
2022/07/05 04:21:01;;;;;;;2.50;2.30;;;;;;;13.74;100.00;101090.25;5030988;28;20206;-72
2022/07/05 04:23:27;;;;;;;2.43;2.23;;;;;;;13.76;100.00;101095.47;5015858;28;20304;-72
2022/07/05 04:25:55;;;;;;;2.70;2.50;;;;;;;13.61;100.00;101099.41;4996983;28;20311;-72
2022/07/05 04:28:35;;;;;;;2.83;2.40;;;;;;;13.57;100.00;101100.41;5037549;28;20325;-72
2022/07/05 04:31:04;;;;;;;2.40;2.20;;;;;;;13.71;100.00;101098.22;5010566;28;20287;-72
2022/07/05 04:33:36;;;;;;;3.83;2.43;;;;;;;13.71;100.00;101113.09;5010743;28;20205;-72
2022/07/05 04:36:04;;;;;;;3.37;2.47;;;;;;;13.82;100.00;101111.84;5006848;28;20238;-72
2022/07/05 04:38:31;;;;;;;3.00;2.67;;;;;;;14.06;100.00;101119.81;5012364;28;20196;-72
2022/07/05 04:41:00;;;;;;;5.90;2.50;;;;;;;14.14;100.00;101117.81;5008031;28;20220;-72
2022/07/05 04:43:28;;;;;;;3.10;2.80;;;;;;;14.28;100.00;101122.59;5005701;28;20749;-73
2022/07/05 04:45:55;;;;;;;4.27;3.23;;;;;;;14.43;100.00;101121.19;5011526;28;20775;-72
2022/07/05 04:48:22;;;;;;;2.80;2.60;;;;;;;14.61;100.00;101127.59;5009159;28;20202;-72
2022/07/05 04:50:50;;;;;;;5.03;3.30;;;;;;;14.67;100.00;101134.41;5008659;28;20239;-72
2022/07/05 04:53:16;;;;;;;3.20;2.83;;;;;;;14.68;100.00;101134.34;5007375;28;20206;-72
2022/07/05 04:55:42;;;;;;;4.87;3.50;;;;;;;14.86;100.00;101134.59;5026011;28;20566;-72
2022/07/05 04:58:09;;;;;;;5.10;3.83;;;;;;;15.15;100.00;101137.03;5026657;28;20207;-72
2022/07/05 05:00:35;;;;;;;4.53;4.13;;;;;;;15.07;100.00;101127.72;5026541;28;20242;-72
2022/07/05 05:03:02;;;;;;;4.47;4.07;;;;;;;15.09;100.00;101134.66;5023247;28;20242;-72
2022/07/05 05:05:28;;;;;;;4.80;3.97;;;;;;;15.13;100.00;101143.25;5020206;28;20209;-72
2022/07/05 05:07:56;;;;;;;4.73;3.90;;;;;;;15.25;100.00;101147.19;5022768;28;20199;-72
2022/07/05 05:10:22;;;;;;;4.13;3.73;;;;;;;15.37;100.00;101146.72;5023642;28;20587;-72
2022/07/05 05:12:49;;;;;;;4.33;3.93;;;;;;;15.46;100.00;101153.41;5024928;28;20564;-73
2022/07/05 05:15:15;;;;;;;4.97;4.20;;;;;;;15.70;100.00;101154.22;5023093;28;20565;-72
2022/07/05 05:17:44;;;;;;;4.00;3.57;;;;;;;15.91;100.00;101144.69;5026122;28;20734;-72
2022/07/05 05:20:13;;;;;;;4.23;3.67;;;;;;;16.07;100.00;101156.28;5021388;28;20220;-72
2022/07/05 05:22:40;;;;;;;5.33;4.10;;;;;;;16.22;99.72;101157.44;5023605;28;20213;-73
2022/07/05 05:25:09;;;;;;;4.33;3.77;;;;;;;16.28;99.21;101156.31;5018763;28;20671;-73
2022/07/05 05:27:36;;;;;;;4.57;3.50;;;;;;;16.32;97.25;101154.41;5022306;28;20702;-72
2022/07/05 05:30:03;;;;;;;4.10;3.70;;;;;;;16.51;99.54;101157.13;5024927;28;20490;-72
2022/07/05 05:32:29;;;;;;;4.33;3.93;;;;;;;16.65;98.66;101152.97;5018911;28;20299;-73
2022/07/05 05:34:55;;;;;;;6.10;3.90;;;;;;;16.69;95.35;101151.06;5019998;28;20207;-72
2022/07/05 05:37:22;;;;;;;4.07;3.67;;;;;;;16.88;97.76;101153.78;5023920;28;20215;-73
2022/07/05 05:39:48;;;;;;;5.13;3.50;;;;;;;17.08;96.84;101150.28;5023865;28;20192;-72
2022/07/05 05:42:16;;;;;;;4.30;3.90;;;;;;;17.18;93.01;101150.72;5025652;28;20718;-73
2022/07/05 05:44:42;;;;;;;6.90;3.80;;;;;;;17.39;95.02;101162.06;5026725;28;20205;-73
2022/07/05 05:47:08;;;;;;;4.77;3.97;;;;;;;17.50;94.05;101151.88;5030422;28;20505;-72
2022/07/05 05:49:35;;;;;;;3.97;3.57;;;;;;;17.60;92.27;101163.69;5029676;28;20211;-72
2022/07/05 05:52:01;;;;;;;4.33;3.83;;;;;;;17.65;82.62;101173.19;5026429;28;20199;-73
2022/07/05 05:54:28;;;;;;;3.50;3.10;;;;;;;17.89;88.87;101168.56;5028583;28;20211;-73
2022/07/05 05:56:54;;;;;;;4.07;3.60;;;;;;;18.05;89.84;101161.59;5028444;28;20234;-72
2022/07/05 05:59:22;;;;;;;6.50;3.30;;;;;;;18.14;87.10;101171.69;5029314;28;20593;-73
2022/07/05 06:01:48;;;;;;;4.10;3.60;;;;;;;18.23;85.57;101167.75;5031806;28;20227;-73
2022/07/05 06:04:15;;;;;;;5.37;3.70;;;;;;;18.42;87.25;101167.69;5024296;28;20223;-73
2022/07/05 06:06:41;;;;;;;3.90;3.50;;;;;;;18.53;79.70;101183.81;5020671;28;20231;-73
2022/07/05 06:09:07;;;;;;;4.37;3.33;;;;;;;18.69;79.09;101178.63;5028521;28;20203;-73
2022/07/05 06:11:34;;;;;;;4.60;3.20;;;;;;;18.85;77.55;101183.16;5029758;28;20203;-73
2022/07/05 06:14:00;;;;;;;5.20;3.50;;;;;;;19.01;71.22;101193.75;5025262;28;20211;-71
2022/07/05 06:16:28;;;;;;;8.90;3.27;;;;;;;19.19;66.80;101200.72;5023920;28;20231;-73
2022/07/05 06:18:54;;;;;;;4.27;3.00;;;;;;;19.35;68.66;101195.47;5036108;28;20200;-73
2022/07/05 06:21:20;;;;;;;3.83;2.80;;;;;;;19.46;71.29;101190.44;5027728;28;20603;-72
2022/07/05 06:23:47;;;;;;;6.23;3.10;;;;;;;19.59;69.58;101190.63;5024393;28;20206;-73
2022/07/05 06:26:13;;;;;;;4.43;2.70;;;;;;;19.78;68.94;101193.13;5026743;28;20220;-73
2022/07/05 06:28:40;;;;;;;2.70;2.30;;;;;;;19.98;63.19;101204.38;5022253;28;20759;-71
2022/07/05 06:31:06;;;;;;;3.43;2.37;;;;;;;20.06;64.67;101204.81;5021914;28;20195;-71
2022/07/05 06:33:34;;;;;;;4.37;2.40;;;;;;;20.15;61.58;101206.94;5024079;28;20208;-71
2022/07/05 06:36:00;;;;;;;3.93;2.40;;;;;;;20.33;60.14;101212.13;5028582;28;20239;-71
2022/07/05 06:38:27;;;;;;;2.73;2.43;;;;;;;20.43;58.88;101208.84;5034286;28;20204;-71
2022/07/05 06:40:56;;;;;;;6.37;2.57;;;;;;;20.53;58.75;101208.31;5025569;28;20216;-71
2022/07/05 06:43:23;;;;;;;3.10;2.30;;;;;;;20.69;59.78;101198.56;5024198;28;20303;-71
2022/07/05 06:46:00;;;;;;;2.20;2.00;;;;;;;20.76;57.85;101197.22;5005681;28;20273;-71
2022/07/05 06:48:27;;;;;;;5.77;2.40;;;;;;;20.91;57.87;101199.91;5024003;28;20267;-71
2022/07/05 06:50:54;;;;;;;2.40;2.20;;;;;;;21.10;55.72;101203.13;5027694;28;20210;-71
2022/07/05 06:53:21;;;;;;;2.07;1.90;;;;;;;21.17;53.40;101200.97;5022779;28;20204;-71
2022/07/05 06:55:47;;;;;;;2.37;2.07;;;;;;;21.34;57.08;101200.78;5025695;28;20224;-71
2022/07/05 06:58:13;;;;;;;1.90;1.70;;;;;;;21.47;55.30;101197.38;5019189;28;20210;-71
2022/07/05 07:00:40;;;;;;;2.33;2.00;;;;;;;21.59;53.65;101201.91;5026010;28;20216;-71
2022/07/05 07:03:07;;;;;;;2.93;1.67;;;;;;;21.73;55.26;101195.72;5026634;28;20211;-71
2022/07/05 07:05:33;;;;;;;2.10;1.90;;;;;;;21.86;53.23;101203.75;5026732;28;20200;-71
2022/07/05 07:10:46;;;;;;;1.63;1.53;;;;;;;22.08;53.45;101201.41;5023850;28;20334;-71
2022/07/05 07:13:12;;;;;;;1.70;1.57;;;;;;;22.24;53.68;101203.06;5026458;28;20192;-71
2022/07/05 07:15:38;;;;;;;1.70;1.53;;;;;;;22.22;52.36;101203.16;5027373;28;20200;-70
2022/07/05 07:18:05;;;;;;;2.73;1.60;;;;;;;22.27;52.95;101198.44;5024975;28;20207;-71
2022/07/05 07:20:32;;;;;;;1.80;1.60;;;;;;;22.37;52.97;101200.47;5022392;28;20276;-71
2022/07/05 07:22:59;;;;;;;2.73;1.50;;;;;;;22.44;48.92;101207.94;5024043;28;20203;-71
2022/07/05 07:25:26;;;;;;;1.10;1.00;;;;;;;22.48;47.68;101212.06;5025517;28;20556;-71
2022/07/05 07:27:55;;;;;;;1.07;0.97;;;;;;;22.66;47.70;101211.78;5026995;28;20580;-71
2022/07/05 07:30:24;;;;;;;1.37;1.20;;;;;;;22.62;45.66;101212.94;5027386;28;20272;-71
2022/07/05 07:32:50;;;;;;;1.10;1.00;;;;;;;22.68;47.32;101204.56;5026237;28;20200;-71
2022/07/05 07:35:17;;;;;;;5.10;1.00;;;;;;;22.79;48.10;101204.66;5025999;28;20196;-71
2022/07/05 07:37:43;;;;;;;0.80;0.80;;;;;;;22.96;47.22;101208.00;5020041;28;20220;-71
2022/07/05 07:40:11;;;;;;;1.40;1.00;;;;;;;23.05;44.98;101204.72;5019332;28;20207;-71
2022/07/05 07:42:39;;;;;;;1.13;1.00;;;;;;;23.09;43.46;101210.66;5025087;28;20482;-71
2022/07/05 07:45:07;;;;;;;1.43;1.10;;;;;;;23.21;43.75;101208.00;5023055;28;20201;-71
2022/07/05 07:47:34;;;;;;;0.93;0.90;;;;;;;23.34;43.79;101208.00;5025329;28;20226;-71
2022/07/05 07:50:00;;;;;;;1.20;0.80;;;;;;;23.30;42.41;101203.84;5021524;28;20211;-71
2022/07/05 07:52:27;;;;;;;0.83;0.83;;;;;;;23.40;44.40;101204.88;5026048;28;20192;-71
2022/07/05 07:54:54;;;;;;;1.13;0.93;;;;;;;23.50;41.31;101201.56;5018321;28;20250;-71
2022/07/05 07:57:20;;;;;;;0.77;0.77;;;;;;;23.59;41.88;101191.13;5022749;28;20234;-71
2022/07/05 07:59:48;;;;;;;0.73;0.73;;;;;;;23.72;45.07;101176.94;5025854;28;20286;-71
2022/07/05 08:02:14;;;;;;;0.82;0.80;;;;;;;23.68;45.44;101183.44;5026768;28;20216;-71
2022/07/05 08:04:41;;;;;;;2.22;0.75;;;;;;;23.71;44.49;101184.06;5024217;28;20235;-71
2022/07/05 08:07:07;;;;;;;2.28;0.88;;;;;;;23.73;42.70;101183.97;5024293;28;20219;-70
2022/07/05 08:09:34;;;;;;;0.80;0.80;;;;;;;23.83;41.94;101186.81;5025340;28;20286;-71
2022/07/05 08:12:01;;;;;;;0.88;0.80;;;;;;;23.98;41.23;101191.03;5024697;28;20192;-71
2022/07/05 08:14:27;;;;;;;1.10;1.00;;;;;;;24.08;41.65;101193.84;5025472;28;20208;-71
2022/07/05 08:16:55;;;;;;;3.72;0.90;;;;;;;24.17;40.68;101187.84;5024596;28;20227;-71
2022/07/05 08:22:07;;;;;;;0.73;0.70;;;;;;;24.36;42.35;101177.50;5022844;28;20220;-71
2022/07/05 08:24:34;;;;;;;1.15;0.85;;;;;;;24.50;41.04;101191.56;5018176;28;20195;-71
2022/07/05 08:27:01;;;;;;;1.08;0.75;;;;;;;24.58;40.87;101185.72;5023983;28;20228;-71
2022/07/05 08:29:27;;;;;;;0.52;0.52;;;;;;;24.54;38.42;101199.25;5022526;28;20196;-71
2022/07/05 08:31:55;;;;;;;0.63;0.63;;;;;;;24.60;39.62;101189.94;5021239;28;20199;-71
2022/07/05 08:34:22;;;;;;;1.58;0.70;;;;;;;24.68;40.77;101184.03;5020199;28;20199;-71
2022/07/05 08:36:48;;;;;;;0.98;0.60;;;;;;;24.72;38.27;101186.34;5020363;28;20212;-71
2022/07/05 08:39:16;;;;;;;0.60;0.60;;;;;;;24.88;39.86;101190.50;5024502;28;20204;-71
2022/07/05 08:41:43;;;;;;;1.00;0.63;;;;;;;24.62;36.95;101197.81;5024246;28;20762;-71
2022/07/05 08:44:10;;;;;;;0.98;0.73;;;;;;;24.58;37.31;101202.53;5021658;28;20214;-71
2022/07/05 08:46:39;;;;;;;0.82;0.60;;;;;;;24.70;39.19;101190.09;5018917;28;20266;-71
2022/07/05 08:49:07;;;;;;;0.82;0.57;;;;;;;24.90;40.21;101183.22;5021000;28;20254;-71
2022/07/05 08:51:37;;;;;;;1.30;0.70;;;;;;;24.62;40.00;101182.69;5018143;28;20275;-71
2022/07/05 08:54:04;;;;;;;0.95;0.65;;;;;;;24.25;39.46;101179.28;5018429;28;20251;-71
2022/07/05 08:56:31;;;;;;;0.60;0.60;;;;;;;24.44;42.08;101174.25;5015525;28;20228;-71
2022/07/05 08:58:57;;;;;;;2.63;0.80;;;;;;;24.75;40.36;101182.59;5022341;28;20196;-71
2022/07/05 09:01:25;;;;;;;2.08;0.82;;;;;;;24.86;39.37;101181.75;5018272;28;20576;-71
2022/07/05 09:03:53;;;;;;;1.55;0.70;;;;;;;24.89;38.88;101186.84;5022530;28;20208;-71
2022/07/05 09:06:23;;;;;;;2.42;0.90;;;;;;;24.65;39.23;101194.94;5017845;28;20227;-71
2022/07/05 09:08:52;;;;;;;1.27;0.70;;;;;;;24.25;40.97;101188.09;5018004;28;20200;-71
2022/07/05 09:11:24;;;;;;;0.70;0.70;;;;;;;24.14;41.16;101183.59;5015064;28;20851;-71
2022/07/05 09:13:51;;;;;;;0.65;0.65;;;;;;;24.42;39.77;101180.66;5020619;28;20199;-71
2022/07/05 09:16:18;;;;;;;3.35;0.65;;;;;;;24.65;38.73;101189.59;5021209;28;20220;-70
2022/07/05 09:18:46;;;;;;;1.23;0.70;;;;;;;24.74;38.58;101179.06;5017189;28;20661;-71
2022/07/05 09:21:18;;;;;;;1.27;0.60;;;;;;;24.76;35.87;101187.78;5021897;28;20212;-71
2022/07/05 09:23:53;;;;;;;1.10;0.73;;;;;;;24.86;38.57;101177.28;5016310;28;20207;-71
2022/07/05 09:26:20;;;;;;;1.27;0.55;;;;;;;25.09;37.49;101190.63;5020120;28;20261;-71
2022/07/05 09:28:55;;;;;;;0.60;0.60;;;;;;;25.21;37.41;101195.00;5021296;28;20200;-71
2022/07/05 09:31:28;;;;;;;1.58;0.63;;;;;;;25.29;39.13;101194.41;5021460;28;20253;-71
2022/07/05 09:33:54;;;;;;;0.63;0.63;;;;;;;25.18;37.49;101205.91;5018598;28;20599;-73
2022/07/05 09:36:20;;;;;;;0.80;0.80;;;;;;;25.23;37.29;101198.38;5017396;28;20310;-74
2022/07/05 09:38:51;;;;;;;0.73;0.70;;;;;;;25.04;36.62;101198.97;5020806;28;20204;-73
2022/07/05 09:41:18;;;;;;;2.83;0.80;;;;;;;25.13;37.62;101192.06;5000901;28;20207;-74
2022/07/05 09:43:44;;;;;;;0.95;0.68;;;;;;;25.09;36.91;101199.47;5026973;28;20203;-74
2022/07/05 09:46:12;;;;;;;1.60;0.90;;;;;;;25.00;36.64;101189.53;5002740;28;20713;-74
2022/07/05 09:48:52;;;;;;;2.15;0.77;;;;;;;25.16;37.56;101188.34;5018174;28;20577;-74
2022/07/05 09:51:19;;;;;;;0.75;0.63;;;;;;;25.32;39.67;101173.66;5018137;28;20210;-74
2022/07/05 09:53:46;;;;;;;0.80;0.55;;;;;;;25.41;37.51;101192.59;5023093;28;20206;-74
2022/07/05 09:56:14;;;;;;;0.98;0.75;;;;;;;25.62;37.93;101180.16;5022257;28;20230;-74
2022/07/05 09:58:41;;;;;;;1.00;0.90;;;;;;;25.93;37.67;101179.47;5021543;28;20192;-72
2022/07/05 10:01:25;;;;;;;2.72;1.08;;;;;;;25.81;37.40;101176.00;5024670;28;20199;-72
2022/07/05 10:03:53;;;;;;;0.70;0.57;;;;;;;25.76;36.87;101191.56;5021305;28;20212;-72
2022/07/05 10:06:20;;;;;;;1.70;0.90;;;;;;;25.74;36.82;101182.84;5020747;28;20228;-72
2022/07/05 10:08:48;;;;;;;0.95;0.70;;;;;;;25.86;36.21;101188.00;5007318;28;20228;-71
2022/07/05 10:11:17;;;;;;;1.25;0.90;;;;;;;25.78;35.31;101194.94;5022233;28;20251;-72
2022/07/05 10:13:45;;;;;;;1.08;0.60;;;;;;;25.97;35.24;101186.31;5025120;28;20260;-72
2022/07/05 10:16:12;;;;;;;1.05;0.82;;;;;;;26.06;35.57;101189.06;5024695;28;20227;-72
2022/07/05 10:18:39;;;;;;;1.17;1.00;;;;;;;26.21;37.01;101188.78;5029990;28;20200;-72
2022/07/05 10:21:11;;;;;;;1.20;0.82;;;;;;;26.18;35.24;101186.34;5010518;28;20234;-72
2022/07/05 10:23:38;;;;;;;1.40;0.75;;;;;;;26.31;37.24;101183.50;5008092;28;20226;-72
2022/07/05 10:26:06;;;;;;;0.85;0.80;;;;;;;26.45;35.79;101184.03;5022483;28;20231;-72
2022/07/05 10:28:34;;;;;;;0.60;0.60;;;;;;;26.44;33.41;101185.00;5024934;28;20199;-72
2022/07/05 10:31:03;;;;;;;0.95;0.82;;;;;;;26.67;35.41;101179.56;5028813;28;20199;-72
2022/07/05 10:33:30;;;;;;;0.75;0.75;;;;;;;26.93;36.02;101180.00;5031100;28;20284;-72
2022/07/05 10:35:57;;;;;;;2.25;1.02;;;;;;;26.89;35.21;101180.38;5010358;28;20239;-71
2022/07/05 10:38:24;;;;;;;1.17;0.85;;;;;;;26.81;34.33;101170.34;5029584;28;20210;-72
2022/07/05 10:40:55;;;;;;;3.08;0.80;;;;;;;26.88;34.36;101178.66;5028696;28;20771;-72
2022/07/05 10:43:24;;;;;;;0.90;0.75;;;;;;;27.08;36.38;101172.44;5030524;28;20212;-72
2022/07/05 10:45:52;;;;;;;0.98;0.88;;;;;;;26.96;36.39;101174.34;5017071;28;20216;-72
2022/07/05 10:48:20;;;;;;;0.80;0.80;;;;;;;26.94;36.83;101175.47;5029768;28;20280;-72
2022/07/05 10:50:49;;;;;;;1.95;0.90;;;;;;;26.41;36.05;101176.41;5032843;28;20215;-72
2022/07/05 10:53:17;;;;;;;1.58;0.95;;;;;;;26.11;36.48;101194.03;5025373;28;20202;-72
2022/07/05 10:55:55;;;;;;;2.10;0.90;;;;;;;25.85;37.46;101183.63;5026648;28;20199;-72
2022/07/05 10:58:28;;;;;;;2.65;0.82;;;;;;;25.89;37.86;101181.56;5026020;28;20203;-72
2022/07/05 11:01:34;;;;;;;1.55;1.10;;;;;;;26.30;35.71;101163.09;5033031;28;20657;-71
2022/07/05 11:04:13;;;;;;;0.80;0.80;;;;;;;26.37;35.67;101164.28;5036667;28;20286;-72
2022/07/05 11:06:42;;;;;;;1.08;0.90;;;;;;;26.39;35.88;101155.16;5019788;28;20216;-72
2022/07/05 11:09:17;;;;;;;1.63;1.02;;;;;;;25.76;36.79;101164.84;5024390;28;20188;-72
2022/07/05 11:11:44;;;;;;;2.40;1.10;;;;;;;25.70;37.71;101158.22;5027231;28;20279;-71
2022/07/05 11:14:33;;;;;;;1.27;1.02;;;;;;;26.03;38.55;101157.28;5011380;28;20195;-71
2022/07/05 11:17:15;;;;;;;0.90;0.90;;;;;;;26.23;38.82;101154.75;5022376;28;20509;-72
2022/07/05 11:20:00;;;;;;;2.83;0.82;;;;;;;26.29;37.70;101156.06;5010552;28;20199;-71
2022/07/05 11:22:27;;;;;;;2.35;0.90;;;;;;;26.38;36.26;101157.94;5007071;28;20303;-72
2022/07/05 11:24:55;;;;;;;1.15;0.80;;;;;;;26.60;36.27;101156.97;5027224;28;20188;-71
2022/07/05 11:27:22;;;;;;;2.65;0.90;;;;;;;26.65;37.07;101152.09;5023268;28;20236;-71
2022/07/05 11:29:49;;;;;;;0.80;0.80;;;;;;;26.75;36.69;101149.47;5023624;28;20553;-71
2022/07/05 11:32:19;;;;;;;2.45;1.20;;;;;;;26.78;35.47;101154.56;5013109;28;20203;-71